sensor_id;sensor_type;location;lat;lon;timestamp;P1;durP1;ratioP1;P2;durP2;ratioP2
50559;SDS011;36510;52.610;13.468;2022-08-19T00:04:45;10.98;;;9.60;;
50559;SDS011;36510;52.610;13.468;2022-08-19T00:09:37;10.82;;;9.73;;
50559;SDS011;36510;52.610;13.468;2022-08-19T00:14:28;10.80;;;9.70;;
50559;SDS011;36510;52.610;13.468;2022-08-19T00:19:21;9.93;;;8.68;;
50559;SDS011;36510;52.610;13.468;2022-08-19T00:24:13;10.88;;;9.75;;
50559;SDS011;36510;52.610;13.468;2022-08-19T00:29:05;10.85;;;9.73;;
50559;SDS011;36510;52.610;13.468;2022-08-19T00:33:58;10.85;;;9.48;;
50559;SDS011;36510;52.610;13.468;2022-08-19T00:38:49;11.90;;;10.70;;
50559;SDS011;36510;52.610;13.468;2022-08-19T00:43:41;12.25;;;11.05;;
50559;SDS011;36510;52.610;13.468;2022-08-19T00:48:32;11.82;;;10.43;;
50559;SDS011;36510;52.610;13.468;2022-08-19T00:53:24;12.35;;;11.05;;
50559;SDS011;36510;52.610;13.468;2022-08-19T00:58:17;12.50;;;11.20;;
50559;SDS011;36510;52.610;13.468;2022-08-19T01:03:11;12.25;;;10.90;;
50559;SDS011;36510;52.610;13.468;2022-08-19T01:08:05;12.90;;;11.50;;
50559;SDS011;36510;52.610;13.468;2022-08-19T01:12:57;13.38;;;10.75;;
50559;SDS011;36510;52.610;13.468;2022-08-19T01:17:49;12.82;;;11.57;;
50559;SDS011;36510;52.610;13.468;2022-08-19T01:22:55;12.43;;;11.13;;
50559;SDS011;36510;52.610;13.468;2022-08-19T01:27:48;13.05;;;11.38;;
50559;SDS011;36510;52.610;13.468;2022-08-19T01:32:40;12.85;;;11.55;;
50559;SDS011;36510;52.610;13.468;2022-08-19T01:37:40;13.10;;;11.40;;
50559;SDS011;36510;52.610;13.468;2022-08-19T01:42:32;14.70;;;11.55;;
50559;SDS011;36510;52.610;13.468;2022-08-19T01:47:22;15.05;;;12.23;;
50559;SDS011;36510;52.610;13.468;2022-08-19T01:52:13;13.55;;;11.55;;
50559;SDS011;36510;52.610;13.468;2022-08-19T01:57:05;13.30;;;11.40;;
50559;SDS011;36510;52.610;13.468;2022-08-19T02:02:00;13.63;;;11.27;;
50559;SDS011;36510;52.610;13.468;2022-08-19T02:06:51;14.63;;;12.65;;
50559;SDS011;36510;52.610;13.468;2022-08-19T02:11:41;16.35;;;12.55;;
50559;SDS011;36510;52.610;13.468;2022-08-19T02:16:32;13.57;;;12.18;;
50559;SDS011;36510;52.610;13.468;2022-08-19T02:21:22;14.50;;;12.95;;
50559;SDS011;36510;52.610;13.468;2022-08-19T02:26:13;13.95;;;12.35;;
50559;SDS011;36510;52.610;13.468;2022-08-19T02:31:08;17.63;;;11.70;;
50559;SDS011;36510;52.610;13.468;2022-08-19T02:36:05;13.27;;;11.88;;
50559;SDS011;36510;52.610;13.468;2022-08-19T02:40:58;13.57;;;11.23;;
50559;SDS011;36510;52.610;13.468;2022-08-19T02:45:51;12.52;;;11.32;;
50559;SDS011;36510;52.610;13.468;2022-08-19T02:50:42;14.63;;;11.98;;
50559;SDS011;36510;52.610;13.468;2022-08-19T02:55:33;12.20;;;10.93;;
50559;SDS011;36510;52.610;13.468;2022-08-19T03:00:24;12.55;;;11.25;;
50559;SDS011;36510;52.610;13.468;2022-08-19T03:05:15;13.40;;;12.00;;
50559;SDS011;36510;52.610;13.468;2022-08-19T03:10:06;13.93;;;12.40;;
50559;SDS011;36510;52.610;13.468;2022-08-19T03:14:57;13.30;;;11.95;;
50559;SDS011;36510;52.610;13.468;2022-08-19T03:19:48;13.82;;;11.70;;
50559;SDS011;36510;52.610;13.468;2022-08-19T03:24:38;13.35;;;10.85;;
50559;SDS011;36510;52.610;13.468;2022-08-19T03:29:29;12.27;;;11.05;;
50559;SDS011;36510;52.610;13.468;2022-08-19T03:34:23;12.40;;;11.25;;
50559;SDS011;36510;52.610;13.468;2022-08-19T03:39:16;12.27;;;10.98;;
50559;SDS011;36510;52.610;13.468;2022-08-19T03:44:07;12.88;;;11.25;;
50559;SDS011;36510;52.610;13.468;2022-08-19T03:48:59;12.60;;;10.88;;
50559;SDS011;36510;52.610;13.468;2022-08-19T03:53:53;14.55;;;11.45;;
50559;SDS011;36510;52.610;13.468;2022-08-19T03:58:44;13.98;;;12.07;;
50559;SDS011;36510;52.610;13.468;2022-08-19T04:03:35;13.18;;;11.88;;
50559;SDS011;36510;52.610;13.468;2022-08-19T04:08:26;12.82;;;10.90;;
50559;SDS011;36510;52.610;13.468;2022-08-19T04:13:17;13.00;;;11.52;;
50559;SDS011;36510;52.610;13.468;2022-08-19T04:18:08;12.80;;;10.98;;
50559;SDS011;36510;52.610;13.468;2022-08-19T04:23:00;13.35;;;11.27;;
50559;SDS011;36510;52.610;13.468;2022-08-19T04:27:50;14.40;;;12.05;;
50559;SDS011;36510;52.610;13.468;2022-08-19T04:32:41;13.10;;;11.57;;
50559;SDS011;36510;52.610;13.468;2022-08-19T04:37:33;12.70;;;11.40;;
50559;SDS011;36510;52.610;13.468;2022-08-19T04:42:24;13.45;;;12.15;;
50559;SDS011;36510;52.610;13.468;2022-08-19T04:47:29;12.23;;;11.02;;
50559;SDS011;36510;52.610;13.468;2022-08-19T04:52:20;13.35;;;11.73;;
50559;SDS011;36510;52.610;13.468;2022-08-19T04:57:11;12.20;;;11.00;;
50559;SDS011;36510;52.610;13.468;2022-08-19T05:02:02;12.82;;;11.52;;
50559;SDS011;36510;52.610;13.468;2022-08-19T05:06:53;12.30;;;11.07;;
50559;SDS011;36510;52.610;13.468;2022-08-19T05:11:44;13.32;;;11.55;;
50559;SDS011;36510;52.610;13.468;2022-08-19T05:16:34;12.57;;;11.27;;
50559;SDS011;36510;52.610;13.468;2022-08-19T05:21:25;12.30;;;11.00;;
50559;SDS011;36510;52.610;13.468;2022-08-19T05:26:35;13.00;;;11.32;;
50559;SDS011;36510;52.610;13.468;2022-08-19T05:31:27;13.32;;;11.20;;
50559;SDS011;36510;52.610;13.468;2022-08-19T05:36:18;13.07;;;11.77;;
50559;SDS011;36510;52.610;13.468;2022-08-19T05:41:10;14.50;;;11.60;;
50559;SDS011;36510;52.610;13.468;2022-08-19T05:46:02;13.93;;;12.25;;
50559;SDS011;36510;52.610;13.468;2022-08-19T05:50:56;14.25;;;12.23;;
50559;SDS011;36510;52.610;13.468;2022-08-19T05:55:48;13.95;;;12.50;;
50559;SDS011;36510;52.610;13.468;2022-08-19T06:00:38;14.32;;;12.82;;
50559;SDS011;36510;52.610;13.468;2022-08-19T06:05:30;14.80;;;13.25;;
50559;SDS011;36510;52.610;13.468;2022-08-19T06:10:21;15.45;;;13.85;;
50559;SDS011;36510;52.610;13.468;2022-08-19T06:15:12;15.18;;;13.30;;
50559;SDS011;36510;52.610;13.468;2022-08-19T06:20:04;15.77;;;14.10;;
50559;SDS011;36510;52.610;13.468;2022-08-19T06:24:56;17.48;;;14.85;;
50559;SDS011;36510;52.610;13.468;2022-08-19T06:29:47;17.10;;;15.27;;
50559;SDS011;36510;52.610;13.468;2022-08-19T06:34:38;17.92;;;14.93;;
50559;SDS011;36510;52.610;13.468;2022-08-19T06:39:30;16.58;;;14.85;;
50559;SDS011;36510;52.610;13.468;2022-08-19T06:44:24;17.23;;;15.50;;
50559;SDS011;36510;52.610;13.468;2022-08-19T06:49:17;17.27;;;15.27;;
50559;SDS011;36510;52.610;13.468;2022-08-19T06:54:08;17.83;;;15.93;;
50559;SDS011;36510;52.610;13.468;2022-08-19T06:59:00;18.08;;;14.95;;
50559;SDS011;36510;52.610;13.468;2022-08-19T07:03:52;16.48;;;14.77;;
50559;SDS011;36510;52.610;13.468;2022-08-19T07:08:43;17.08;;;15.27;;
50559;SDS011;36510;52.610;13.468;2022-08-19T07:13:36;18.25;;;16.40;;
50559;SDS011;36510;52.610;13.468;2022-08-19T07:18:27;17.65;;;15.88;;
50559;SDS011;36510;52.610;13.468;2022-08-19T07:23:18;18.52;;;16.63;;
50559;SDS011;36510;52.610;13.468;2022-08-19T07:28:08;17.90;;;16.10;;
50559;SDS011;36510;52.610;13.468;2022-08-19T07:32:59;17.83;;;16.02;;
50559;SDS011;36510;52.610;13.468;2022-08-19T07:37:50;18.20;;;16.25;;
50559;SDS011;36510;52.610;13.468;2022-08-19T07:42:42;18.88;;;16.83;;
50559;SDS011;36510;52.610;13.468;2022-08-19T07:47:33;18.77;;;16.77;;
50559;SDS011;36510;52.610;13.468;2022-08-19T07:52:24;19.15;;;16.95;;
50559;SDS011;36510;52.610;13.468;2022-08-19T07:57:15;19.77;;;17.45;;
50559;SDS011;36510;52.610;13.468;2022-08-19T08:02:06;18.60;;;16.70;;
50559;SDS011;36510;52.610;13.468;2022-08-19T08:06:58;19.27;;;16.38;;
50559;SDS011;36510;52.610;13.468;2022-08-19T08:17:08;19.63;;;16.95;;
50559;SDS011;36510;52.610;13.468;2022-08-19T08:22:00;19.98;;;17.80;;
50559;SDS011;36510;52.610;13.468;2022-08-19T08:26:51;19.50;;;17.38;;
50559;SDS011;36510;52.610;13.468;2022-08-19T08:31:43;19.60;;;16.92;;
50559;SDS011;36510;52.610;13.468;2022-08-19T08:36:40;18.98;;;16.60;;
50559;SDS011;36510;52.610;13.468;2022-08-19T08:41:37;19.08;;;17.08;;
50559;SDS011;36510;52.610;13.468;2022-08-19T08:46:45;18.17;;;16.27;;
50559;SDS011;36510;52.610;13.468;2022-08-19T08:51:43;18.23;;;16.25;;
50559;SDS011;36510;52.610;13.468;2022-08-19T08:56:43;19.15;;;16.65;;
50559;SDS011;36510;52.610;13.468;2022-08-19T09:01:35;23.95;;;17.27;;
50559;SDS011;36510;52.610;13.468;2022-08-19T09:12:00;21.13;;;16.57;;
50559;SDS011;36510;52.610;13.468;2022-08-19T09:17:02;17.80;;;15.95;;
50559;SDS011;36510;52.610;13.468;2022-08-19T09:21:53;20.55;;;16.77;;
50559;SDS011;36510;52.610;13.468;2022-08-19T09:26:44;17.25;;;14.90;;
50559;SDS011;36510;52.610;13.468;2022-08-19T09:31:35;18.85;;;14.52;;
50559;SDS011;36510;52.610;13.468;2022-08-19T09:36:27;17.77;;;14.02;;
50559;SDS011;36510;52.610;13.468;2022-08-19T09:41:23;17.08;;;13.27;;
50559;SDS011;36510;52.610;13.468;2022-08-19T09:46:14;17.38;;;14.68;;
50559;SDS011;36510;52.610;13.468;2022-08-19T09:51:12;18.65;;;14.10;;
50559;SDS011;36510;52.610;13.468;2022-08-19T09:56:06;14.02;;;12.23;;
50559;SDS011;36510;52.610;13.468;2022-08-19T10:01:00;14.23;;;12.82;;
50559;SDS011;36510;52.610;13.468;2022-08-19T10:05:52;15.40;;;12.65;;
50559;SDS011;36510;52.610;13.468;2022-08-19T10:10:43;14.30;;;11.57;;
50559;SDS011;36510;52.610;13.468;2022-08-19T10:15:34;13.18;;;11.85;;
50559;SDS011;36510;52.610;13.468;2022-08-19T10:20:25;12.75;;;11.55;;
50559;SDS011;36510;52.610;13.468;2022-08-19T10:25:16;14.10;;;10.60;;
50559;SDS011;36510;52.610;13.468;2022-08-19T10:30:10;13.32;;;11.05;;
50559;SDS011;36510;52.610;13.468;2022-08-19T10:35:07;15.02;;;11.75;;
50559;SDS011;36510;52.610;13.468;2022-08-19T10:40:01;14.65;;;12.07;;
50559;SDS011;36510;52.610;13.468;2022-08-19T10:45:08;13.95;;;12.10;;
50559;SDS011;36510;52.610;13.468;2022-08-19T10:50:01;13.73;;;10.90;;
50559;SDS011;36510;52.610;13.468;2022-08-19T10:55:13;11.15;;;9.95;;
50559;SDS011;36510;52.610;13.468;2022-08-19T11:00:28;11.82;;;10.63;;
50559;SDS011;36510;52.610;13.468;2022-08-19T11:05:20;12.50;;;10.82;;
50559;SDS011;36510;52.610;13.468;2022-08-19T11:10:20;14.95;;;9.50;;
50559;SDS011;36510;52.610;13.468;2022-08-19T11:15:18;12.05;;;10.93;;
50559;SDS011;36510;52.610;13.468;2022-08-19T11:20:26;13.80;;;10.88;;
50559;SDS011;36510;52.610;13.468;2022-08-19T11:25:31;13.82;;;11.40;;
50559;SDS011;36510;52.610;13.468;2022-08-19T11:30:33;14.60;;;11.18;;
50559;SDS011;36510;52.610;13.468;2022-08-19T11:35:32;13.55;;;11.82;;
50559;SDS011;36510;52.610;13.468;2022-08-19T11:40:26;13.32;;;9.95;;
50559;SDS011;36510;52.610;13.468;2022-08-19T11:45:16;14.23;;;10.57;;
50559;SDS011;36510;52.610;13.468;2022-08-19T11:50:07;12.18;;;10.02;;
50559;SDS011;36510;52.610;13.468;2022-08-19T11:54:57;12.13;;;10.73;;
50559;SDS011;36510;52.610;13.468;2022-08-19T11:59:49;10.45;;;9.32;;
50559;SDS011;36510;52.610;13.468;2022-08-19T12:04:41;10.45;;;9.40;;
50559;SDS011;36510;52.610;13.468;2022-08-19T12:09:31;10.48;;;9.48;;
50559;SDS011;36510;52.610;13.468;2022-08-19T12:14:24;11.02;;;8.98;;
50559;SDS011;36510;52.610;13.468;2022-08-19T12:19:14;14.52;;;9.02;;
50559;SDS011;36510;52.610;13.468;2022-08-19T12:24:05;11.25;;;8.95;;
50559;SDS011;36510;52.610;13.468;2022-08-19T12:28:57;10.55;;;8.43;;
50559;SDS011;36510;52.610;13.468;2022-08-19T12:33:49;13.43;;;9.00;;
50559;SDS011;36510;52.610;13.468;2022-08-19T12:38:40;11.25;;;9.57;;
50559;SDS011;36510;52.610;13.468;2022-08-19T12:43:34;16.65;;;10.45;;
50559;SDS011;36510;52.610;13.468;2022-08-19T12:48:24;10.77;;;8.88;;
50559;SDS011;36510;52.610;13.468;2022-08-19T12:53:38;13.27;;;10.23;;
50559;SDS011;36510;52.610;13.468;2022-08-19T12:58:29;10.88;;;9.25;;
50559;SDS011;36510;52.610;13.468;2022-08-19T13:03:24;9.73;;;8.63;;
50559;SDS011;36510;52.610;13.468;2022-08-19T13:08:19;10.27;;;8.55;;
50559;SDS011;36510;52.610;13.468;2022-08-19T13:13:09;12.70;;;9.25;;
50559;SDS011;36510;52.610;13.468;2022-08-19T13:18:07;10.15;;;9.15;;
50559;SDS011;36510;52.610;13.468;2022-08-19T13:23:00;11.88;;;9.75;;
50559;SDS011;36510;52.610;13.468;2022-08-19T13:27:50;9.88;;;8.90;;
50559;SDS011;36510;52.610;13.468;2022-08-19T13:32:41;10.88;;;8.63;;
50559;SDS011;36510;52.610;13.468;2022-08-19T13:42:42;12.80;;;9.32;;
50559;SDS011;36510;52.610;13.468;2022-08-19T13:47:40;10.65;;;8.98;;
50559;SDS011;36510;52.610;13.468;2022-08-19T13:52:38;10.43;;;9.07;;
50559;SDS011;36510;52.610;13.468;2022-08-19T13:57:40;11.02;;;9.55;;
50559;SDS011;36510;52.610;13.468;2022-08-19T14:02:35;13.40;;;9.32;;
50559;SDS011;36510;52.610;13.468;2022-08-19T14:07:27;11.63;;;8.93;;
50559;SDS011;36510;52.610;13.468;2022-08-19T14:12:19;10.27;;;8.57;;
50559;SDS011;36510;52.610;13.468;2022-08-19T14:17:12;9.40;;;8.23;;
50559;SDS011;36510;52.610;13.468;2022-08-19T14:22:03;10.68;;;8.73;;
50559;SDS011;36510;52.610;13.468;2022-08-19T14:26:55;10.77;;;7.78;;
50559;SDS011;36510;52.610;13.468;2022-08-19T14:31:47;8.90;;;7.80;;
50559;SDS011;36510;52.610;13.468;2022-08-19T14:36:38;9.10;;;7.97;;
50559;SDS011;36510;52.610;13.468;2022-08-19T14:41:28;11.18;;;8.00;;
50559;SDS011;36510;52.610;13.468;2022-08-19T14:46:21;8.65;;;7.68;;
50559;SDS011;36510;52.610;13.468;2022-08-19T14:51:16;8.30;;;7.40;;
50559;SDS011;36510;52.610;13.468;2022-08-19T14:56:13;9.00;;;8.07;;
50559;SDS011;36510;52.610;13.468;2022-08-19T15:01:05;9.65;;;7.93;;
50559;SDS011;36510;52.610;13.468;2022-08-19T15:05:56;11.18;;;9.07;;
50559;SDS011;36510;52.610;13.468;2022-08-19T15:10:47;8.57;;;7.68;;
50559;SDS011;36510;52.610;13.468;2022-08-19T15:15:37;8.82;;;7.93;;
50559;SDS011;36510;52.610;13.468;2022-08-19T15:20:28;8.43;;;7.25;;
50559;SDS011;36510;52.610;13.468;2022-08-19T15:25:19;9.50;;;8.05;;
50559;SDS011;36510;52.610;13.468;2022-08-19T15:30:10;9.65;;;8.65;;
50559;SDS011;36510;52.610;13.468;2022-08-19T15:35:01;8.55;;;7.65;;
50559;SDS011;36510;52.610;13.468;2022-08-19T15:39:53;9.35;;;7.50;;
50559;SDS011;36510;52.610;13.468;2022-08-19T15:44:44;8.38;;;7.22;;
50559;SDS011;36510;52.610;13.468;2022-08-19T15:49:36;8.15;;;7.35;;
50559;SDS011;36510;52.610;13.468;2022-08-19T15:54:26;9.80;;;8.25;;
50559;SDS011;36510;52.610;13.468;2022-08-19T15:59:16;8.98;;;7.95;;
50559;SDS011;36510;52.610;13.468;2022-08-19T16:04:25;9.73;;;7.57;;
50559;SDS011;36510;52.610;13.468;2022-08-19T16:09:35;8.30;;;7.45;;
50559;SDS011;36510;52.610;13.468;2022-08-19T16:14:32;10.05;;;8.18;;
50559;SDS011;36510;52.610;13.468;2022-08-19T16:19:24;8.65;;;7.72;;
50559;SDS011;36510;52.610;13.468;2022-08-19T16:24:19;9.20;;;8.30;;
50559;SDS011;36510;52.610;13.468;2022-08-19T16:29:14;9.63;;;8.73;;
50559;SDS011;36510;52.610;13.468;2022-08-19T16:34:06;10.77;;;7.55;;
50559;SDS011;36510;52.610;13.468;2022-08-19T16:38:56;9.70;;;8.70;;
50559;SDS011;36510;52.610;13.468;2022-08-19T16:43:47;10.43;;;8.70;;
50559;SDS011;36510;52.610;13.468;2022-08-19T16:48:41;9.52;;;8.48;;
50559;SDS011;36510;52.610;13.468;2022-08-19T16:53:38;8.95;;;8.02;;
50559;SDS011;36510;52.610;13.468;2022-08-19T16:58:30;9.93;;;8.25;;
50559;SDS011;36510;52.610;13.468;2022-08-19T17:03:23;8.13;;;7.32;;
50559;SDS011;36510;52.610;13.468;2022-08-19T17:08:17;9.52;;;8.40;;
50559;SDS011;36510;52.610;13.468;2022-08-19T17:13:10;9.60;;;8.60;;
50559;SDS011;36510;52.610;13.468;2022-08-19T17:18:01;10.23;;;8.77;;
50559;SDS011;36510;52.610;13.468;2022-08-19T17:22:54;8.98;;;8.07;;
50559;SDS011;36510;52.610;13.468;2022-08-19T17:27:45;9.98;;;8.82;;
50559;SDS011;36510;52.610;13.468;2022-08-19T17:32:36;11.57;;;9.95;;
50559;SDS011;36510;52.610;13.468;2022-08-19T17:37:26;9.73;;;8.73;;
50559;SDS011;36510;52.610;13.468;2022-08-19T17:42:18;9.95;;;8.90;;
50559;SDS011;36510;52.610;13.468;2022-08-19T17:47:09;10.70;;;8.65;;
50559;SDS011;36510;52.610;13.468;2022-08-19T17:52:00;10.38;;;9.38;;
50559;SDS011;36510;52.610;13.468;2022-08-19T17:56:50;9.52;;;8.60;;
50559;SDS011;36510;52.610;13.468;2022-08-19T18:01:42;10.18;;;8.00;;
50559;SDS011;36510;52.610;13.468;2022-08-19T18:06:33;10.02;;;8.02;;
50559;SDS011;36510;52.610;13.468;2022-08-19T18:11:25;8.07;;;7.28;;
50559;SDS011;36510;52.610;13.468;2022-08-19T18:16:15;7.25;;;6.20;;
50559;SDS011;36510;52.610;13.468;2022-08-19T18:21:07;7.05;;;6.30;;
50559;SDS011;36510;52.610;13.468;2022-08-19T18:25:59;6.82;;;6.13;;
50559;SDS011;36510;52.610;13.468;2022-08-19T18:30:51;7.15;;;5.88;;
50559;SDS011;36510;52.610;13.468;2022-08-19T18:35:42;8.07;;;5.53;;
50559;SDS011;36510;52.610;13.468;2022-08-19T18:40:35;6.90;;;6.20;;
50559;SDS011;36510;52.610;13.468;2022-08-19T18:45:44;6.68;;;5.97;;
50559;SDS011;36510;52.610;13.468;2022-08-19T18:50:57;6.85;;;6.25;;
50559;SDS011;36510;52.610;13.468;2022-08-19T18:55:49;6.30;;;5.60;;
50559;SDS011;36510;52.610;13.468;2022-08-19T19:00:42;6.90;;;5.60;;
50559;SDS011;36510;52.610;13.468;2022-08-19T19:05:33;6.78;;;5.90;;
50559;SDS011;36510;52.610;13.468;2022-08-19T19:10:23;7.15;;;6.00;;
50559;SDS011;36510;52.610;13.468;2022-08-19T19:15:14;6.35;;;5.70;;
50559;SDS011;36510;52.610;13.468;2022-08-19T19:20:04;7.47;;;5.20;;
50559;SDS011;36510;52.610;13.468;2022-08-19T19:24:55;8.02;;;5.82;;
50559;SDS011;36510;52.610;13.468;2022-08-19T19:29:48;6.60;;;5.90;;
50559;SDS011;36510;52.610;13.468;2022-08-19T19:34:39;6.82;;;6.20;;
50559;SDS011;36510;52.610;13.468;2022-08-19T19:39:29;9.18;;;5.95;;
50559;SDS011;36510;52.610;13.468;2022-08-19T19:44:20;7.45;;;5.32;;
50559;SDS011;36510;52.610;13.468;2022-08-19T19:49:11;7.40;;;5.82;;
50559;SDS011;36510;52.610;13.468;2022-08-19T19:54:02;7.95;;;5.85;;
50559;SDS011;36510;52.610;13.468;2022-08-19T19:58:53;6.53;;;5.82;;
50559;SDS011;36510;52.610;13.468;2022-08-19T20:03:44;6.53;;;5.93;;
50559;SDS011;36510;52.610;13.468;2022-08-19T20:08:34;6.75;;;6.07;;
50559;SDS011;36510;52.610;13.468;2022-08-19T20:13:46;8.18;;;6.80;;
50559;SDS011;36510;52.610;13.468;2022-08-19T20:18:39;7.50;;;6.25;;
50559;SDS011;36510;52.610;13.468;2022-08-19T20:23:30;8.57;;;7.68;;
50559;SDS011;36510;52.610;13.468;2022-08-19T20:28:20;7.70;;;6.90;;
50559;SDS011;36510;52.610;13.468;2022-08-19T20:33:11;7.57;;;6.88;;
50559;SDS011;36510;52.610;13.468;2022-08-19T20:38:02;9.05;;;7.32;;
50559;SDS011;36510;52.610;13.468;2022-08-19T20:42:57;8.50;;;7.25;;
50559;SDS011;36510;52.610;13.468;2022-08-19T20:47:48;7.00;;;6.20;;
50559;SDS011;36510;52.610;13.468;2022-08-19T20:52:38;7.85;;;7.15;;
50559;SDS011;36510;52.610;13.468;2022-08-19T20:57:28;8.18;;;7.25;;
50559;SDS011;36510;52.610;13.468;2022-08-19T21:02:19;7.93;;;7.00;;
50559;SDS011;36510;52.610;13.468;2022-08-19T21:07:10;9.02;;;8.18;;
50559;SDS011;36510;52.610;13.468;2022-08-19T21:12:04;8.45;;;7.55;;
50559;SDS011;36510;52.610;13.468;2022-08-19T21:16:55;7.82;;;7.05;;
50559;SDS011;36510;52.610;13.468;2022-08-19T21:21:46;8.15;;;7.35;;
50559;SDS011;36510;52.610;13.468;2022-08-19T21:26:37;8.73;;;7.82;;
50559;SDS011;36510;52.610;13.468;2022-08-19T21:31:29;9.32;;;8.00;;
50559;SDS011;36510;52.610;13.468;2022-08-19T21:36:21;9.85;;;8.85;;
50559;SDS011;36510;52.610;13.468;2022-08-19T21:41:11;9.93;;;9.02;;
50559;SDS011;36510;52.610;13.468;2022-08-19T21:46:02;10.68;;;9.57;;
50559;SDS011;36510;52.610;13.468;2022-08-19T21:50:52;11.52;;;10.43;;
50559;SDS011;36510;52.610;13.468;2022-08-19T21:55:43;11.30;;;10.25;;
50559;SDS011;36510;52.610;13.468;2022-08-19T22:00:34;11.68;;;10.20;;
50559;SDS011;36510;52.610;13.468;2022-08-19T22:05:25;12.32;;;10.68;;
50559;SDS011;36510;52.610;13.468;2022-08-19T22:10:16;12.95;;;10.23;;
50559;SDS011;36510;52.610;13.468;2022-08-19T22:15:08;11.52;;;10.13;;
50559;SDS011;36510;52.610;13.468;2022-08-19T22:20:01;12.10;;;10.82;;
50559;SDS011;36510;52.610;13.468;2022-08-19T22:24:54;11.75;;;10.55;;
50559;SDS011;36510;52.610;13.468;2022-08-19T22:29:55;10.38;;;9.30;;
50559;SDS011;36510;52.610;13.468;2022-08-19T22:34:45;10.77;;;9.77;;
50559;SDS011;36510;52.610;13.468;2022-08-19T22:39:36;12.10;;;10.90;;
50559;SDS011;36510;52.610;13.468;2022-08-19T22:44:26;12.38;;;11.07;;
50559;SDS011;36510;52.610;13.468;2022-08-19T22:49:17;12.68;;;10.73;;
50559;SDS011;36510;52.610;13.468;2022-08-19T22:54:07;13.30;;;11.95;;
50559;SDS011;36510;52.610;13.468;2022-08-19T22:58:58;15.02;;;13.25;;
50559;SDS011;36510;52.610;13.468;2022-08-19T23:03:48;16.73;;;14.30;;
50559;SDS011;36510;52.610;13.468;2022-08-19T23:08:39;17.25;;;14.73;;
50559;SDS011;36510;52.610;13.468;2022-08-19T23:13:31;17.38;;;15.35;;
50559;SDS011;36510;52.610;13.468;2022-08-19T23:18:22;17.10;;;15.23;;
50559;SDS011;36510;52.610;13.468;2022-08-19T23:23:13;16.55;;;14.85;;
50559;SDS011;36510;52.610;13.468;2022-08-19T23:28:07;19.05;;;16.17;;
50559;SDS011;36510;52.610;13.468;2022-08-19T23:38:13;17.90;;;15.98;;
50559;SDS011;36510;52.610;13.468;2022-08-19T23:43:04;19.00;;;16.65;;
50559;SDS011;36510;52.610;13.468;2022-08-19T23:47:56;18.00;;;16.05;;
50559;SDS011;36510;52.610;13.468;2022-08-19T23:52:48;18.73;;;16.20;;
50559;SDS011;36510;52.610;13.468;2022-08-19T23:57:41;22.42;;;18.23;;
